createdAt,value
2017-06-01T00:01:18.583Z,15.90
2017-06-01T00:03:46.997Z,15.80
2017-06-01T00:06:20.153Z,15.70
2017-06-01T00:08:48.519Z,15.60
2017-06-01T00:11:16.175Z,15.60
2017-06-01T00:13:44.568Z,15.60
2017-06-01T00:16:12.956Z,15.70
2017-06-01T00:18:41.304Z,15.60
2017-06-01T00:21:09.657Z,15.60
2017-06-01T00:23:37.260Z,15.50
2017-06-01T00:26:05.584Z,15.50
2017-06-01T00:28:33.253Z,15.50
2017-06-01T00:31:00.917Z,15.50
2017-06-01T00:33:28.692Z,15.40
2017-06-01T00:35:57.105Z,15.30
2017-06-01T00:38:24.764Z,15.30
2017-06-01T00:40:53.739Z,15.30
2017-06-01T00:43:22.222Z,15.30
2017-06-01T00:45:51.511Z,15.30
2017-06-01T00:48:19.913Z,15.20
2017-06-01T00:50:48.405Z,15.20
2017-06-01T00:53:16.872Z,15.20
2017-06-01T00:55:46.304Z,15.20
2017-06-01T00:58:14.692Z,15.10
2017-06-01T01:00:43.054Z,15.20
2017-06-01T01:03:11.470Z,15.20
2017-06-01T01:05:39.800Z,15.20
2017-06-01T01:08:08.217Z,15.20
2017-06-01T01:10:36.581Z,15.20
2017-06-01T01:13:04.907Z,15.10
2017-06-01T01:15:33.227Z,15.00
2017-06-01T01:18:01.602Z,15.00
2017-06-01T01:20:30.011Z,14.90
2017-06-01T01:22:58.388Z,14.90
2017-06-01T01:25:26.697Z,14.80
2017-06-01T01:27:54.283Z,14.70
2017-06-01T01:30:21.825Z,14.80
2017-06-01T01:32:50.166Z,14.80
2017-06-01T01:35:18.636Z,14.90
2017-06-01T01:37:47.015Z,14.90
2017-06-01T01:40:15.379Z,14.80
2017-06-01T01:42:43.770Z,14.90
2017-06-01T01:45:12.143Z,14.90
2017-06-01T01:47:40.540Z,14.80
2017-06-01T01:50:11.790Z,14.70
2017-06-01T01:52:40.097Z,14.70
2017-06-01T01:55:08.487Z,14.70
2017-06-01T01:57:36.060Z,14.70
2017-06-01T02:00:04.389Z,14.60
2017-06-01T02:02:32.735Z,14.60
2017-06-01T02:05:01.188Z,14.50
2017-06-01T02:07:28.745Z,14.60
2017-06-01T02:09:56.380Z,14.50
2017-06-01T02:12:24.723Z,14.50
2017-06-01T02:14:53.077Z,14.50
2017-06-01T02:17:21.494Z,14.40
2017-06-01T02:19:49.182Z,14.40
2017-06-01T02:22:17.572Z,14.30
2017-06-01T02:24:56.449Z,14.30
2017-06-01T02:27:24.046Z,14.30
2017-06-01T02:29:52.466Z,14.30
2017-06-01T02:32:20.837Z,14.30
2017-06-01T02:37:53.675Z,14.20
2017-06-01T02:40:22.063Z,14.20
2017-06-01T02:42:50.509Z,14.20
2017-06-01T02:45:18.920Z,14.10
2017-06-01T02:47:47.313Z,14.10
2017-06-01T02:50:15.709Z,14.10
2017-06-01T02:52:44.191Z,14.00
2017-06-01T02:55:12.607Z,14.00
2017-06-01T02:57:41.000Z,14.00
2017-06-01T03:00:09.407Z,14.00
2017-06-01T03:02:37.780Z,13.90
2017-06-01T03:05:18.952Z,13.90
2017-06-01T03:07:47.380Z,13.90
2017-06-01T03:10:15.748Z,13.80
2017-06-01T03:12:44.243Z,13.80
2017-06-01T03:15:12.645Z,13.80
2017-06-01T03:17:41.000Z,13.80
2017-06-01T03:20:09.388Z,13.80
2017-06-01T03:22:37.749Z,13.70
2017-06-01T03:25:06.083Z,13.70
2017-06-01T03:27:34.456Z,13.70
2017-06-01T03:30:02.936Z,13.60
2017-06-01T03:32:31.235Z,13.70
2017-06-01T03:34:59.613Z,13.70
2017-06-01T03:37:28.006Z,13.70
2017-06-01T03:39:56.429Z,13.70
2017-06-01T03:42:24.757Z,13.70
2017-06-01T03:44:53.185Z,13.70
2017-06-01T03:47:21.686Z,13.60
2017-06-01T04:10:17.598Z,13.90
2017-06-01T04:12:45.980Z,14.00
2017-06-01T04:15:14.455Z,14.00
2017-06-01T04:17:42.768Z,14.00
2017-06-01T04:20:11.134Z,14.20
2017-06-01T04:22:39.554Z,14.30
2017-06-01T04:25:07.925Z,14.40
2017-06-01T04:27:36.267Z,14.50
2017-06-01T05:04:45.891Z,15.40
2017-06-01T05:07:14.249Z,15.50
2017-06-01T05:32:45.402Z,17.20
2017-06-01T05:35:13.740Z,17.40
2017-06-01T05:37:42.682Z,17.70
2017-06-01T05:40:11.060Z,17.90
2017-06-01T05:42:38.702Z,17.90
2017-06-01T05:45:07.013Z,18.60
2017-06-01T05:47:35.324Z,18.80
2017-06-01T05:50:02.907Z,18.80
2017-06-01T05:52:30.466Z,19.00
2017-06-01T05:54:58.855Z,19.10
2017-06-01T05:57:27.197Z,19.30
2017-06-01T05:59:55.555Z,19.30
2017-06-01T06:02:24.120Z,19.30
2017-06-01T06:04:52.411Z,19.60
2017-06-01T06:07:20.810Z,19.70
2017-06-01T06:09:49.239Z,19.90
2017-06-01T06:12:17.575Z,20.20
2017-06-01T06:14:45.932Z,20.10
2017-06-01T06:17:14.274Z,19.90
2017-06-01T06:19:42.603Z,19.80
2017-06-01T06:22:10.902Z,19.90
2017-06-01T06:24:39.191Z,20.30
2017-06-01T06:27:07.556Z,20.70
2017-06-01T06:29:35.914Z,21.20
2017-06-01T06:32:04.249Z,21.30
2017-06-01T06:34:32.588Z,21.80
2017-06-01T06:37:00.951Z,21.60
2017-06-01T06:39:29.311Z,21.70
2017-06-01T06:41:56.886Z,21.70
2017-06-01T06:44:25.277Z,21.70
2017-06-01T06:46:53.584Z,22.10
2017-06-01T06:49:21.892Z,22.60
2017-06-01T06:51:50.226Z,23.10
2017-06-01T06:54:18.561Z,24.00
2017-06-01T06:56:46.922Z,24.80
2017-06-01T06:59:14.557Z,24.70
2017-06-01T07:01:42.948Z,26.10
2017-06-01T07:04:11.439Z,25.10
2017-06-01T07:06:39.768Z,24.60
2017-06-01T07:09:08.083Z,24.90
2017-06-01T07:11:36.417Z,24.70
2017-06-01T07:14:04.762Z,25.40
2017-06-01T07:16:33.146Z,26.70
2017-06-01T07:19:01.485Z,27.70
2017-06-01T07:21:29.987Z,28.70
2017-06-01T07:23:58.352Z,28.70
2017-06-01T07:26:26.799Z,28.50
2017-06-01T07:28:54.384Z,28.40
2017-06-01T07:31:22.753Z,26.60
2017-06-01T07:33:51.219Z,26.30
2017-06-01T07:36:19.603Z,25.60
2017-06-01T07:38:47.947Z,25.20
2017-06-01T07:41:16.261Z,25.40
2017-06-01T07:43:44.759Z,25.70
2017-06-01T07:46:13.223Z,26.20
2017-06-01T07:48:41.566Z,26.50
2017-06-01T07:51:09.929Z,27.50
2017-06-01T07:53:38.258Z,28.30
2017-06-01T07:56:06.652Z,28.90
2017-06-01T07:58:34.951Z,30.00
2017-06-01T08:01:03.427Z,31.30
2017-06-01T08:03:31.731Z,31.50
2017-06-01T08:06:00.061Z,30.30
2017-06-01T08:08:28.386Z,29.50
2017-06-01T08:10:56.730Z,28.50
2017-06-01T08:13:25.050Z,27.80
2017-06-01T08:15:56.649Z,27.20
2017-06-01T08:18:24.970Z,26.20
2017-06-01T08:20:53.333Z,25.90
2017-06-01T08:23:21.783Z,25.80
2017-06-01T08:26:02.583Z,27.20
2017-06-01T08:28:30.882Z,28.90
2017-06-01T08:30:59.249Z,29.60
2017-06-01T08:33:27.688Z,29.30
2017-06-01T08:35:55.995Z,29.10
2017-06-01T08:38:24.395Z,28.60
2017-06-01T08:40:52.705Z,28.90
2017-06-01T08:43:21.035Z,28.80
2017-06-01T08:45:53.177Z,30.20
